sensor_id;sensor_type;location;lat;lon;timestamp;P1;P2;P0
74426;PMS7003;62859;53.906;27.430;2024-03-06T00:00:10;6.7;6.3;4
74426;PMS7003;62859;53.906;27.430;2024-03-06T02:00:10;11;9.5;7
74426;PMS7003;62859;53.906;27.430;2024-03-06T02:04:26;11;9.5;7
74426;PMS7003;62859;53.906;27.430;2024-03-06T02:10:00;13;11.3;7
74426;PMS7003;62859;53.906;27.430;2024-03-06T02:14:40;10.7;10;7.3
74426;PMS7003;62859;53.906;27.430;2024-03-06T02:20:01;11.7;11;7
74426;PMS7003;62859;53.906;27.430;2024-03-06T02:24:50;11;8.3;5.8
74426;PMS7003;62859;53.906;27.430;2024-03-06T02:30:10;12.7;10.7;6.3
74426;PMS7003;62859;53.906;27.430;2024-03-06T02:34:34;12.7;10.7;6.3
74426;PMS7003;62859;53.906;27.430;2024-03-06T02:40:10;12.5;9.5;7.3
74426;PMS7003;62859;53.906;27.430;2024-03-06T02:45:10;9.7;8.7;6
74426;PMS7003;62859;53.906;27.430;2024-03-06T02:49:32;9.7;8.7;6
74426;PMS7003;62859;53.906;27.430;2024-03-06T02:54:26;10.3;9;5.3
74426;PMS7003;62859;53.906;27.430;2024-03-06T02:59:50;11.7;10.7;6.7
74426;PMS7003;62859;53.906;27.430;2024-03-06T03:04:32;12;9.8;7
74426;PMS7003;62859;53.906;27.430;2024-03-06T03:09:26;13;9.3;6
74426;PMS7003;62859;53.906;27.430;2024-03-06T03:15:10;12.3;9.7;5.3
74426;PMS7003;62859;53.906;27.430;2024-03-06T03:19:26;12.3;9.7;5.3
74426;PMS7003;62859;53.906;27.430;2024-03-06T03:25:00;10.3;8.8;6
74426;PMS7003;62859;53.906;27.430;2024-03-06T03:29:42;8.7;8.3;6
74426;PMS7003;62859;53.906;27.430;2024-03-06T03:35:10;7.7;7.3;5.7
74426;PMS7003;62859;53.906;27.430;2024-03-06T03:39:40;7.7;7.3;5.7
74426;PMS7003;62859;53.906;27.430;2024-03-06T03:44:42;10.3;9.5;6.8
74426;PMS7003;62859;53.906;27.430;2024-03-06T03:49:32;10.3;8.7;5.7
74426;PMS7003;62859;53.906;27.430;2024-03-06T03:55:00;10.3;9;5
74426;PMS7003;62859;53.906;27.430;2024-03-06T03:59:50;10;6.8;5.3
74426;PMS7003;62859;53.906;27.430;2024-03-06T04:05:08;9.3;8.7;6
74426;PMS7003;62859;53.906;27.430;2024-03-06T04:09:54;9.3;8.7;6
74426;PMS7003;62859;53.906;27.430;2024-03-06T04:15:00;12;9;5.7
74426;PMS7003;62859;53.906;27.430;2024-03-06T04:20:10;11.7;9.3;6.7
74426;PMS7003;62859;53.906;27.430;2024-03-06T04:24:32;11.7;9.3;6.7
74426;PMS7003;62859;53.906;27.430;2024-03-06T04:29:32;11.3;9.7;5.7
74426;PMS7003;62859;53.906;27.430;2024-03-06T04:34:44;10.7;8.7;6.7
74426;PMS7003;62859;53.906;27.430;2024-03-06T04:39:26;8.3;7.3;5.5
74426;PMS7003;62859;53.906;27.430;2024-03-06T04:44:34;10.7;9;5.7
74426;PMS7003;62859;53.906;27.430;2024-03-06T04:49:40;12;10;6.3
74426;PMS7003;62859;53.906;27.430;2024-03-06T04:54:26;10.3;8.3;5
74426;PMS7003;62859;53.906;27.430;2024-03-06T05:00:10;10;7.3;4.7
74426;PMS7003;62859;53.906;27.430;2024-03-06T05:04:42;10;7.3;4.7
74426;PMS7003;62859;53.906;27.430;2024-03-06T05:10:10;8;7;5.3
74426;PMS7003;62859;53.906;27.430;2024-03-06T05:15:10;11;10;7
74426;PMS7003;62859;53.906;27.430;2024-03-06T05:20:00;11;10;7
74426;PMS7003;62859;53.906;27.430;2024-03-06T05:25:10;8.7;8;5.7
74426;PMS7003;62859;53.906;27.430;2024-03-06T05:30:08;9.7;8.3;6.7
74426;PMS7003;62859;53.906;27.430;2024-03-06T05:34:34;9.7;8.3;6.7
74426;PMS7003;62859;53.906;27.430;2024-03-06T05:39:26;8.3;7.5;5.5
74426;PMS7003;62859;53.906;27.430;2024-03-06T05:45:10;10;8;6
74426;PMS7003;62859;53.906;27.430;2024-03-06T05:49:28;10;8;6
74426;PMS7003;62859;53.906;27.430;2024-03-06T05:55:10;10.7;9.7;7.3
74426;PMS7003;62859;53.906;27.430;2024-03-06T05:59:26;10.7;9.7;7.3
74426;PMS7003;62859;53.906;27.430;2024-03-06T06:05:10;8.7;8.7;5.7
74426;PMS7003;62859;53.906;27.430;2024-03-06T06:09:58;8.7;8.7;5.7
74426;PMS7003;62859;53.906;27.430;2024-03-06T06:14:40;9.5;8;5.5
74426;PMS7003;62859;53.906;27.430;2024-03-06T06:19:41;8.3;8.3;5.7
74426;PMS7003;62859;53.906;27.430;2024-03-06T06:24:26;9.7;8.3;6
74426;PMS7003;62859;53.906;27.430;2024-03-06T06:29:26;8.3;7.7;5.7
74426;PMS7003;62859;53.906;27.430;2024-03-06T06:34:28;9.3;7.5;4
74426;PMS7003;62859;53.906;27.430;2024-03-06T06:40:00;8.3;6.7;5
74426;PMS7003;62859;53.906;27.430;2024-03-06T06:44:52;11.3;8;5.7
74426;PMS7003;62859;53.906;27.430;2024-03-06T06:50:10;9.3;7.3;4.5
74426;PMS7003;62859;53.906;27.430;2024-03-06T06:55:02;9.3;7.3;4.5
74426;PMS7003;62859;53.906;27.430;2024-03-06T07:00:12;8.7;7.3;5.7
74426;PMS7003;62859;53.906;27.430;2024-03-06T07:05:12;9.7;8.7;5.7
74426;PMS7003;62859;53.906;27.430;2024-03-06T07:09:52;9.7;8.7;5.7
74426;PMS7003;62859;53.906;27.430;2024-03-06T07:14:34;9.3;7.8;5
74426;PMS7003;62859;53.906;27.430;2024-03-06T07:20:14;10.3;8;5.3
74426;PMS7003;62859;53.906;27.430;2024-03-06T07:24:54;10.3;8;5.3
74426;PMS7003;62859;53.906;27.430;2024-03-06T07:30:14;10;9.3;6.5
74426;PMS7003;62859;53.906;27.430;2024-03-06T07:34:26;10;9.3;6.5
74426;PMS7003;62859;53.906;27.430;2024-03-06T07:39:32;10.7;10;6
74426;PMS7003;62859;53.906;27.430;2024-03-06T07:44:26;9.3;8;6
74426;PMS7003;62859;53.906;27.430;2024-03-06T07:49:26;9.8;9.3;6
74426;PMS7003;62859;53.906;27.430;2024-03-06T07:54:26;11.3;10;7.3
74426;PMS7003;62859;53.906;27.430;2024-03-06T07:59:26;9.7;7.7;6
74426;PMS7003;62859;53.906;27.430;2024-03-06T08:04:26;13;11.7;7.3
74426;PMS7003;62859;53.906;27.430;2024-03-06T08:09:56;9.5;9.3;7
74426;PMS7003;62859;53.906;27.430;2024-03-06T08:14:28;12.7;8;5.3
74426;PMS7003;62859;53.906;27.430;2024-03-06T08:19:44;7.7;7.3;5.3
74426;PMS7003;62859;53.906;27.430;2024-03-06T08:25:12;10.8;9.3;7
74426;PMS7003;62859;53.906;27.430;2024-03-06T08:29:34;10.8;9.3;7
74426;PMS7003;62859;53.906;27.430;2024-03-06T08:34:28;11.3;10.7;7.3
74426;PMS7003;62859;53.906;27.430;2024-03-06T08:39:26;11;9.7;7.3
74426;PMS7003;62859;53.906;27.430;2024-03-06T08:44:54;7.3;7.3;5
74426;PMS7003;62859;53.906;27.430;2024-03-06T08:49:44;12.8;10.8;7.3
74426;PMS7003;62859;53.906;27.430;2024-03-06T08:54:56;10.7;9.3;7.3
74426;PMS7003;62859;53.906;27.430;2024-03-06T08:59:42;10;9.7;6
74426;PMS7003;62859;53.906;27.430;2024-03-06T09:04:54;10.7;9.7;6.3
74426;PMS7003;62859;53.906;27.430;2024-03-06T09:09:26;11.3;8.8;6
74426;PMS7003;62859;53.906;27.430;2024-03-06T09:15:14;10.3;9;7
74426;PMS7003;62859;53.906;27.430;2024-03-06T09:20:14;11.3;10.3;7.7
74426;PMS7003;62859;53.906;27.430;2024-03-06T09:24:26;11.3;10.3;7.7
74426;PMS7003;62859;53.906;27.430;2024-03-06T09:29:46;11.3;10.3;7.3
74426;PMS7003;62859;53.906;27.430;2024-03-06T09:34:34;7.3;6.7;4.7
74426;PMS7003;62859;53.906;27.430;2024-03-06T09:39:46;7.7;7.3;5.3
74426;PMS7003;62859;53.906;27.430;2024-03-06T09:45:04;9;7.3;4.7
74426;PMS7003;62859;53.906;27.430;2024-03-06T09:50:15;7.7;7.3;5.3
74426;PMS7003;62859;53.906;27.430;2024-03-06T09:55:02;7.7;7.3;5.3
74426;PMS7003;62859;53.906;27.430;2024-03-06T10:00:05;9;7.3;6
74426;PMS7003;62859;53.906;27.430;2024-03-06T10:04:44;9;7.3;6
74426;PMS7003;62859;53.906;27.430;2024-03-06T10:10:14;8.7;7.7;5.7
74426;PMS7003;62859;53.906;27.430;2024-03-06T10:14:48;8.7;7.7;5.7
74426;PMS7003;62859;53.906;27.430;2024-03-06T10:19:46;6.3;5.7;4.7
74426;PMS7003;62859;53.906;27.430;2024-03-06T10:24:34;8.5;6.8;5.3
74426;PMS7003;62859;53.906;27.430;2024-03-06T10:29:36;9.3;7;5.3
74426;PMS7003;62859;53.906;27.430;2024-03-06T10:34:28;8.7;6.7;5.3
74426;PMS7003;62859;53.906;27.430;2024-03-06T10:39:56;24.3;23.3;19.7
74426;PMS7003;62859;53.906;27.430;2024-03-06T10:44:44;21.5;20;16.8
74426;PMS7003;62859;53.906;27.430;2024-03-06T10:50:14;11.3;10.7;8.3
74426;PMS7003;62859;53.906;27.430;2024-03-06T10:55:14;9.3;9;6.3
74426;PMS7003;62859;53.906;27.430;2024-03-06T10:59:40;9.3;9;6.3
74426;PMS7003;62859;53.906;27.430;2024-03-06T11:04:27;9.8;9.3;7
74426;PMS7003;62859;53.906;27.430;2024-03-06T11:09:26;10.3;9.3;7
74426;PMS7003;62859;53.906;27.430;2024-03-06T11:14:42;9.7;9.3;7.7
74426;PMS7003;62859;53.906;27.430;2024-03-06T11:20:08;10.7;9.3;7.7
74426;PMS7003;62859;53.906;27.430;2024-03-06T11:25:00;9.3;9;6.8
74426;PMS7003;62859;53.906;27.430;2024-03-06T11:30:12;7;6.7;5.7
74426;PMS7003;62859;53.906;27.430;2024-03-06T11:35:12;9.5;9;6
74426;PMS7003;62859;53.906;27.430;2024-03-06T11:40:02;9.5;9;6
74426;PMS7003;62859;53.906;27.430;2024-03-06T11:45:12;7.7;7.7;5.7
74426;PMS7003;62859;53.906;27.430;2024-03-06T11:50:10;8.3;6.3;5.3
74426;PMS7003;62859;53.906;27.430;2024-03-06T11:55:02;8.3;6.3;5.3
74426;PMS7003;62859;53.906;27.430;2024-03-06T12:00:13;11.7;8;6.3
74426;PMS7003;62859;53.906;27.430;2024-03-06T12:05:12;7;6;5
74426;PMS7003;62859;53.906;27.430;2024-03-06T12:10:12;8.7;7.3;5.7
74426;PMS7003;62859;53.906;27.430;2024-03-06T12:14:42;8.7;7.3;5.7
74426;PMS7003;62859;53.906;27.430;2024-03-06T12:20:12;8.3;8;6
74426;PMS7003;62859;53.906;27.430;2024-03-06T12:25:02;8.3;8;6
74426;PMS7003;62859;53.906;27.430;2024-03-06T12:30:12;10.5;9.3;6.8
74426;PMS7003;62859;53.906;27.430;2024-03-06T12:34:56;10.5;9.3;6.8
74426;PMS7003;62859;53.906;27.430;2024-03-06T12:39:44;9.7;9.7;6.3
74426;PMS7003;62859;53.906;27.430;2024-03-06T12:44:26;7.3;7.3;5.7
74426;PMS7003;62859;53.906;27.430;2024-03-06T12:49:42;9.7;8;6
74426;PMS7003;62859;53.906;27.430;2024-03-06T12:54:54;9.5;8.5;6.5
74426;PMS7003;62859;53.906;27.430;2024-03-06T12:59:36;7.7;7.3;5.7
74426;PMS7003;62859;53.906;27.430;2024-03-06T13:05:02;6.7;6.7;5.3
74426;PMS7003;62859;53.906;27.430;2024-03-06T13:10:12;10;9;6.3
74426;PMS7003;62859;53.906;27.430;2024-03-06T13:15:02;10;9;6.3
74426;PMS7003;62859;53.906;27.430;2024-03-06T13:19:54;10.7;8;6.3
74426;PMS7003;62859;53.906;27.430;2024-03-06T13:25:12;10.3;8.8;6.8
74426;PMS7003;62859;53.906;27.430;2024-03-06T13:29:44;10.3;8.8;6.8
74426;PMS7003;62859;53.906;27.430;2024-03-06T13:34:44;11.7;9.3;7
74426;PMS7003;62859;53.906;27.430;2024-03-06T13:39:42;8;7.7;5.3
74426;PMS7003;62859;53.906;27.430;2024-03-06T13:45:06;11.3;9.3;6
74426;PMS7003;62859;53.906;27.430;2024-03-06T13:49:36;11.3;9.3;6
74426;PMS7003;62859;53.906;27.430;2024-03-06T13:55:02;19;17.3;15.3
74426;PMS7003;62859;53.906;27.430;2024-03-06T13:59:27;20.3;19.7;15.3
74426;PMS7003;62859;53.906;27.430;2024-03-06T14:04:52;10.7;8.3;6
74426;PMS7003;62859;53.906;27.430;2024-03-06T14:09:42;9.3;7.8;5.8
74426;PMS7003;62859;53.906;27.430;2024-03-06T14:15:12;6.3;6;4.7
74426;PMS7003;62859;53.906;27.430;2024-03-06T14:20:10;7.3;6.7;4.3
74426;PMS7003;62859;53.906;27.430;2024-03-06T14:24:26;7.3;6.7;4.3
74426;PMS7003;62859;53.906;27.430;2024-03-06T14:29:26;9.3;8.3;5.3
74426;PMS7003;62859;53.906;27.430;2024-03-06T14:34:26;9.3;7.7;5.7
74426;PMS7003;62859;53.906;27.430;2024-03-06T14:39:42;8.3;7.7;5.3
74426;PMS7003;62859;53.906;27.430;2024-03-06T14:44:26;8.7;8.3;5.3
74426;PMS7003;62859;53.906;27.430;2024-03-06T14:50:12;10.7;9.3;7
74426;PMS7003;62859;53.906;27.430;2024-03-06T14:54:52;10.7;9.3;7
74426;PMS7003;62859;53.906;27.430;2024-03-06T15:00:02;10.7;8.7;5.3
74426;PMS7003;62859;53.906;27.430;2024-03-06T15:04:26;7;7;5
74426;PMS7003;62859;53.906;27.430;2024-03-06T15:10:12;9;8;5
74426;PMS7003;62859;53.906;27.430;2024-03-06T15:14:42;9;8;5
74426;PMS7003;62859;53.906;27.430;2024-03-06T15:20:12;8.3;7.7;5
74426;PMS7003;62859;53.906;27.430;2024-03-06T15:24:44;8.3;7.7;5
74426;PMS7003;62859;53.906;27.430;2024-03-06T15:30:02;9;6.7;4.7
74426;PMS7003;62859;53.906;27.430;2024-03-06T15:34:42;7.7;6.7;4.3
74426;PMS7003;62859;53.906;27.430;2024-03-06T15:39:52;7.3;6.7;4.3
74426;PMS7003;62859;53.906;27.430;2024-03-06T15:44:26;7.3;7;4.3
74426;PMS7003;62859;53.906;27.430;2024-03-06T15:50:15;6.7;6.7;4.7
74426;PMS7003;62859;53.906;27.430;2024-03-06T15:55:14;8;5.7;4.7
74426;PMS7003;62859;53.906;27.430;2024-03-06T15:59:42;8;5.7;4.7
74426;PMS7003;62859;53.906;27.430;2024-03-06T16:04:46;9.8;8.5;4.8
74426;PMS7003;62859;53.906;27.430;2024-03-06T16:09:34;6.7;5.7;4.3
74426;PMS7003;62859;53.906;27.430;2024-03-06T16:19:26;11;7;5
74426;PMS7003;62859;53.906;27.430;2024-03-06T16:25:14;7;5.5;4.5
74426;PMS7003;62859;53.906;27.430;2024-03-06T16:29:44;7;5.5;4.5
74426;PMS7003;62859;53.906;27.430;2024-03-06T16:35:04;8.5;6.8;4
74426;PMS7003;62859;53.906;27.430;2024-03-06T16:39:26;8.5;6.8;4
74426;PMS7003;62859;53.906;27.430;2024-03-06T16:45:05;6.7;4.7;3.3
74426;PMS7003;62859;53.906;27.430;2024-03-06T16:49:44;6.7;4.7;3.3
74426;PMS7003;62859;53.906;27.430;2024-03-06T16:55:05;8.3;7.3;4.5
74426;PMS7003;62859;53.906;27.430;2024-03-06T16:59:26;8.3;7.3;4.5
74426;PMS7003;62859;53.906;27.430;2024-03-06T17:04:46;9.3;7;4.3
74426;PMS7003;62859;53.906;27.430;2024-03-06T17:10:14;7.3;5.7;3.3
74426;PMS7003;62859;53.906;27.430;2024-03-06T17:15:15;7;4.5;3
74426;PMS7003;62859;53.906;27.430;2024-03-06T17:19:34;7;4.5;3
74426;PMS7003;62859;53.906;27.430;2024-03-06T17:25:00;5.7;5;3
74426;PMS7003;62859;53.906;27.430;2024-03-06T17:30:14;5;4.5;3
74426;PMS7003;62859;53.906;27.430;2024-03-06T17:34:42;5;4.5;3
74426;PMS7003;62859;53.906;27.430;2024-03-06T17:39:32;7;6;4
74426;PMS7003;62859;53.906;27.430;2024-03-06T17:44:50;5.3;5;3.7
74426;PMS7003;62859;53.906;27.430;2024-03-06T17:49:36;8;7;4.3
74426;PMS7003;62859;53.906;27.430;2024-03-06T17:54:26;7.7;6.7;4.3
74426;PMS7003;62859;53.906;27.430;2024-03-06T17:59:26;7;6.5;5
74426;PMS7003;62859;53.906;27.430;2024-03-06T18:04:44;6;4;3
74426;PMS7003;62859;53.906;27.430;2024-03-06T18:10:12;6;5;3.3
74426;PMS7003;62859;53.906;27.430;2024-03-06T18:15:00;6;5;3.3
74426;PMS7003;62859;53.906;27.430;2024-03-06T18:20:11;6.7;6.3;3.7
74426;PMS7003;62859;53.906;27.430;2024-03-06T18:25:12;6;6;5
74426;PMS7003;62859;53.906;27.430;2024-03-06T18:29:52;6;6;5
74426;PMS7003;62859;53.906;27.430;2024-03-06T18:35:13;8.3;6.3;3.3
74426;PMS7003;62859;53.906;27.430;2024-03-06T18:40:13;8;8;4.3
74426;PMS7003;62859;53.906;27.430;2024-03-06T18:44:36;8;8;4.3
74426;PMS7003;62859;53.906;27.430;2024-03-06T18:50:15;6.8;5.5;3.5
74426;PMS7003;62859;53.906;27.430;2024-03-06T18:55:15;7.3;6.7;4
74426;PMS7003;62859;53.906;27.430;2024-03-06T19:00:03;7.3;6.7;4
74426;PMS7003;62859;53.906;27.430;2024-03-06T19:05:15;7.3;6.7;3.7
74426;PMS7003;62859;53.906;27.430;2024-03-06T19:09:42;7.3;6.7;3.7
74426;PMS7003;62859;53.906;27.430;2024-03-06T19:15:14;7;6.7;4.7
74426;PMS7003;62859;53.906;27.430;2024-03-06T19:19:34;7;6.7;4.7
74426;PMS7003;62859;53.906;27.430;2024-03-06T19:25:05;8.3;6.3;3.7
74426;PMS7003;62859;53.906;27.430;2024-03-06T19:29:34;8.3;6.3;3.7
74426;PMS7003;62859;53.906;27.430;2024-03-06T19:35:03;9.8;6.8;4
74426;PMS7003;62859;53.906;27.430;2024-03-06T19:39:45;8.3;7;4.3
74426;PMS7003;62859;53.906;27.430;2024-03-06T19:45:11;7.3;6;4.3
74426;PMS7003;62859;53.906;27.430;2024-03-06T19:50:03;7.3;6;4.3
74426;PMS7003;62859;53.906;27.430;2024-03-06T19:55:15;7.7;6.3;4
74426;PMS7003;62859;53.906;27.430;2024-03-06T20:00:15;7.3;6.3;3.7
74426;PMS7003;62859;53.906;27.430;2024-03-06T20:05:05;7.3;6.3;3.8
74426;PMS7003;62859;53.906;27.430;2024-03-06T20:10:15;8.3;7.3;4.3
74426;PMS7003;62859;53.906;27.430;2024-03-06T20:15:13;5.7;5.7;4
74426;PMS7003;62859;53.906;27.430;2024-03-06T20:19:55;5.7;5.7;4
74426;PMS7003;62859;53.906;27.430;2024-03-06T20:24:45;7;6.7;3.3
74426;PMS7003;62859;53.906;27.430;2024-03-06T20:30:15;6.7;6.7;3.7
74426;PMS7003;62859;53.906;27.430;2024-03-06T20:35:03;6.7;6.7;3.7
74426;PMS7003;62859;53.906;27.430;2024-03-06T20:40:15;6.7;5.3;4.3
74426;PMS7003;62859;53.906;27.430;2024-03-06T20:44:43;6.7;5.3;4.3
74426;PMS7003;62859;53.906;27.430;2024-03-06T20:50:15;7.7;6;3.7
74426;PMS7003;62859;53.906;27.430;2024-03-06T20:54:27;7.7;6;3.7
74426;PMS7003;62859;53.906;27.430;2024-03-06T21:00:15;6.7;6.3;3.3
74426;PMS7003;62859;53.906;27.430;2024-03-06T21:04:27;6.7;6.3;3.3
74426;PMS7003;62859;53.906;27.430;2024-03-06T21:09:35;8;8;4.8
74426;PMS7003;62859;53.906;27.430;2024-03-06T21:14:27;7.3;6.7;3.7
74426;PMS7003;62859;53.906;27.430;2024-03-06T21:20:05;8;5.7;3.7
74426;PMS7003;62859;53.906;27.430;2024-03-06T21:25:03;8;5.7;3.7
74426;PMS7003;62859;53.906;27.430;2024-03-06T21:29:35;6.8;5.8;3.8
74426;PMS7003;62859;53.906;27.430;2024-03-06T21:35:15;7.3;6.7;3.3
74426;PMS7003;62859;53.906;27.430;2024-03-06T21:39:27;7.3;6.7;3.3
74426;PMS7003;62859;53.906;27.430;2024-03-06T21:44:55;9.3;7.3;4.7
74426;PMS7003;62859;53.906;27.430;2024-03-06T21:49:27;8.3;7.5;4.8
74426;PMS7003;62859;53.906;27.430;2024-03-06T21:54:55;9.7;8;5.7
74426;PMS7003;62859;53.906;27.430;2024-03-06T21:59:45;7.3;6.7;3.3
74426;PMS7003;62859;53.906;27.430;2024-03-06T22:04:29;7.3;7;4.3
74426;PMS7003;62859;53.906;27.430;2024-03-06T22:09:27;8.7;6.7;3.7
74426;PMS7003;62859;53.906;27.430;2024-03-06T22:14:55;10.3;8.7;4.7
74426;PMS7003;62859;53.906;27.430;2024-03-06T22:19:43;8.5;7.8;5.3
74426;PMS7003;62859;53.906;27.430;2024-03-06T22:25:15;6;5.7;4.3
74426;PMS7003;62859;53.906;27.430;2024-03-06T22:29:55;6;5.7;4.3
74426;PMS7003;62859;53.906;27.430;2024-03-06T22:34:27;8.8;7.8;5
74426;PMS7003;62859;53.906;27.430;2024-03-06T22:39:27;8.3;6.7;5
74426;PMS7003;62859;53.906;27.430;2024-03-06T22:44:27;9.3;7.7;5
74426;PMS7003;62859;53.906;27.430;2024-03-06T22:49:27;7.7;6.7;4.7
74426;PMS7003;62859;53.906;27.430;2024-03-06T22:54:35;9;7.5;5.3
74426;PMS7003;62859;53.906;27.430;2024-03-06T23:00:03;9;6.7;4.7
74426;PMS7003;62859;53.906;27.430;2024-03-06T23:04:53;9.3;8.3;4.7
74426;PMS7003;62859;53.906;27.430;2024-03-06T23:09:57;8;7.3;5.3
74426;PMS7003;62859;53.906;27.430;2024-03-06T23:14:27;9;6.8;3.8
74426;PMS7003;62859;53.906;27.430;2024-03-06T23:20:13;8.3;7.3;6.3
74426;PMS7003;62859;53.906;27.430;2024-03-06T23:24:43;8.3;7.3;6.3
74426;PMS7003;62859;53.906;27.430;2024-03-06T23:30:06;9.5;7.8;4.8
74426;PMS7003;62859;53.906;27.430;2024-03-06T23:34:43;9.5;7.8;4.8
74426;PMS7003;62859;53.906;27.430;2024-03-06T23:39:29;9;7.7;6
74426;PMS7003;62859;53.906;27.430;2024-03-06T23:44:53;10.3;8.7;5.7
74426;PMS7003;62859;53.906;27.430;2024-03-06T23:50:13;7.8;7.3;4.8
74426;PMS7003;62859;53.906;27.430;2024-03-06T23:55:13;11;8;5
74426;PMS7003;62859;53.906;27.430;2024-03-06T23:59:53;11;8;5
